Time;durP1;ratioP1;P1;durP2;ratioP2;P2;SDS_P1;SDS_P2;PMS_P1;PMS_P2;Temp;Humidity;BMP_temperature;BMP_pressure;BME280_temperature;BME280_humidity;BME280_pressure;Samples;Min_cycle;Max_cycle;Signal;HPM_P1;HPM_P2
2021/04/23 00:02:11;;;;;;;6.15;4.00;;;0.80;92.40;;;;;;5041707;28;20473;-79
2021/04/23 00:04:38;;;;;;;10.15;4.68;;;0.80;92.90;;;;;;5059577;28;20037;-79
2021/04/23 00:07:06;;;;;;;6.93;3.55;;;0.70;92.70;;;;;;5059040;28;20045;-79
2021/04/23 00:09:35;;;;;;;6.70;4.05;;;0.70;92.30;;;;;;5043230;28;20059;-79
2021/04/23 00:12:09;;;;;;;6.60;3.05;;;0.70;92.10;;;;;;5060059;28;20037;-79
2021/04/23 00:14:44;;;;;;;7.45;4.03;;;0.90;91.90;;;;;;5058913;28;20064;-79
2021/04/23 00:17:12;;;;;;;14.32;4.10;;;0.80;91.70;;;;;;5061114;28;20059;-79
2021/04/23 00:19:41;;;;;;;4.35;3.92;;;0.90;91.60;;;;;;5042755;28;20474;-79
2021/04/23 00:22:09;;;;;;;6.68;3.67;;;0.70;92.80;;;;;;5058337;28;20045;-79
2021/04/23 00:24:36;;;;;;;7.68;3.90;;;0.70;92.40;;;;;;5058819;28;20056;-79
2021/04/23 00:27:05;;;;;;;7.57;4.40;;;0.70;92.40;;;;;;5058764;28;20399;-79
2021/04/23 00:29:34;;;;;;;4.10;3.28;;;0.70;92.40;;;;;;5060000;28;20045;-79
2021/04/23 00:34:48;;;;;;;4.55;3.15;;;0.70;92.10;;;;;;5061983;28;20037;-79
2021/04/23 00:37:16;;;;;;;7.97;3.40;;;0.80;92.40;;;;;;5063572;28;20048;-79
2021/04/23 00:39:43;;;;;;;4.10;3.53;;;0.90;92.10;;;;;;5063807;28;20044;-79
2021/04/23 00:42:11;;;;;;;5.78;2.67;;;0.90;91.80;;;;;;5062288;28;20175;-79
2021/04/23 00:44:38;;;;;;;7.13;4.30;;;0.90;92.10;;;;;;5044932;28;20412;-77
2021/04/23 00:47:06;;;;;;;3.72;2.97;;;0.90;91.80;;;;;;5064145;28;20044;-77
2021/04/23 00:49:34;;;;;;;6.75;3.80;;;0.90;91.80;;;;;;5045025;28;20050;-77
2021/04/23 00:52:03;;;;;;;8.30;4.28;;;0.90;91.70;;;;;;5062407;28;20052;-77
2021/04/23 00:54:31;;;;;;;6.03;3.72;;;0.80;91.90;;;;;;5029693;28;20040;-77
2021/04/23 00:56:58;;;;;;;5.15;3.70;;;0.60;92.20;;;;;;5063897;28;20504;-79
2021/04/23 00:59:26;;;;;;;13.25;4.68;;;0.70;92.20;;;;;;5063628;28;20044;-79
2021/04/23 01:02:07;;;;;;;9.07;7.00;;;0.70;92.10;;;;;;5045726;28;20048;-79
2021/04/23 01:04:34;;;;;;;4.88;3.47;;;0.90;92.00;;;;;;5061434;28;20033;-79
2021/04/23 01:07:02;;;;;;;5.88;4.25;;;0.80;91.90;;;;;;5062119;28;20048;-79
2021/04/23 01:09:30;;;;;;;15.93;4.38;;;1.00;91.70;;;;;;5064323;28;20048;-79
2021/04/23 01:12:00;;;;;;;8.13;3.88;;;1.00;91.80;;;;;;5027792;28;20076;-79
2021/04/23 01:14:28;;;;;;;5.90;4.15;;;0.80;91.90;;;;;;5060895;28;20474;-79
2021/04/23 01:16:55;;;;;;;3.97;3.20;;;0.90;92.00;;;;;;5062904;28;20040;-79
2021/04/23 01:19:25;;;;;;;5.45;3.40;;;0.90;92.00;;;;;;5045154;28;20041;-79
2021/04/23 01:21:53;;;;;;;9.15;2.97;;;0.90;91.90;;;;;;5063468;28;20049;-79
2021/04/23 01:24:21;;;;;;;5.72;4.10;;;0.90;91.90;;;;;;5061628;28;20044;-79
2021/04/23 01:26:54;;;;;;;8.93;4.30;;;0.90;91.80;;;;;;5060086;28;20041;-79
2021/04/23 01:29:23;;;;;;;6.40;4.22;;;0.90;91.80;;;;;;5043436;28;20207;-79
2021/04/23 01:31:56;;;;;;;7.05;2.95;;;0.80;91.70;;;;;;5063227;28;20048;-79
2021/04/23 01:34:33;;;;;;;4.95;3.78;;;0.80;92.20;;;;;;5063934;28;20064;-79
2021/04/23 01:37:01;;;;;;;3.92;3.15;;;0.70;92.10;;;;;;5044832;28;20044;-79
2021/04/23 01:39:32;;;;;;;8.00;4.57;;;0.60;92.30;;;;;;5063078;28;20036;-79
2021/04/23 01:42:00;;;;;;;7.28;3.85;;;0.30;93.00;;;;;;5061340;28;20056;-79
2021/04/23 01:44:28;;;;;;;6.63;3.45;;;0.00;93.70;;;;;;5026411;28;20421;-79
2021/04/23 01:46:56;;;;;;;5.88;3.17;;;-0.10;93.90;;;;;;5061498;28;20048;-79
2021/04/23 01:49:24;;;;;;;9.00;3.97;;;0.00;94.30;;;;;;5063091;28;20052;-79
2021/04/23 01:51:55;;;;;;;7.97;3.20;;;0.00;94.40;;;;;;5060221;28;20037;-79
2021/04/23 01:54:24;;;;;;;6.70;3.13;;;0.10;94.40;;;;;;5060972;28;20048;-79
2021/04/23 01:56:52;;;;;;;7.40;3.28;;;0.20;94.20;;;;;;5062611;28;20048;-79
2021/04/23 01:59:21;;;;;;;4.15;3.28;;;0.10;94.50;;;;;;5061577;28;20509;-79
2021/04/23 02:01:48;;;;;;;5.93;3.65;;;0.20;94.70;;;;;;5060053;28;20059;-79
2021/04/23 02:04:19;;;;;;;8.30;4.50;;;0.20;94.60;;;;;;5061973;28;20041;-79
2021/04/23 02:06:47;;;;;;;8.43;3.30;;;0.20;94.50;;;;;;5059939;28;20051;-79
2021/04/23 02:09:15;;;;;;;8.98;3.90;;;0.20;94.60;;;;;;5043879;28;20048;-79
2021/04/23 02:11:45;;;;;;;6.60;4.40;;;0.20;94.70;;;;;;5043340;28;20063;-79
2021/04/23 02:14:12;;;;;;;8.80;4.00;;;0.20;94.50;;;;;;5060576;28;20067;-79
2021/04/23 02:16:41;;;;;;;8.93;3.13;;;0.20;94.40;;;;;;5062217;28;20045;-79
2021/04/23 02:19:10;;;;;;;8.27;2.83;;;0.30;94.20;;;;;;5054276;28;20398;-79
2021/04/23 02:21:40;;;;;;;14.02;4.00;;;0.30;94.40;;;;;;5041763;28;20045;-79
2021/04/23 02:24:08;;;;;;;4.60;3.85;;;0.20;94.20;;;;;;5044011;28;20044;-79
2021/04/23 02:26:37;;;;;;;5.30;4.80;;;0.10;94.70;;;;;;5042486;28;20041;-79
2021/04/23 02:29:14;;;;;;;9.15;3.17;;;0.00;94.90;;;;;;5051668;28;20056;-79
2021/04/23 02:31:46;;;;;;;12.30;4.45;;;0.10;95.10;;;;;;5047519;28;20048;-79
2021/04/23 02:34:15;;;;;;;3.40;3.10;;;0.00;95.20;;;;;;5049464;28;20048;-79
2021/04/23 02:36:43;;;;;;;12.15;3.28;;;0.00;95.30;;;;;;5051747;28;20075;-79
2021/04/23 02:39:14;;;;;;;7.53;4.00;;;0.10;95.20;;;;;;5055590;28;20780;-79
2021/04/23 02:41:44;;;;;;;8.10;4.05;;;0.00;95.30;;;;;;5061196;28;20045;-79
2021/04/23 02:44:13;;;;;;;6.40;3.58;;;-0.10;95.50;;;;;;5042269;28;20053;-79
2021/04/23 02:46:41;;;;;;;11.38;3.72;;;-0.10;95.70;;;;;;5040837;28;20041;-79
2021/04/23 02:49:10;;;;;;;7.07;4.28;;;-0.10;95.40;;;;;;5041384;28;20053;-79
2021/04/23 02:51:41;;;;;;;9.57;3.83;;;0.00;95.50;;;;;;5039218;28;20041;-79
2021/04/23 02:54:10;;;;;;;3.85;2.90;;;-0.10;95.40;;;;;;5058826;28;20048;-79
2021/04/23 02:56:38;;;;;;;8.15;3.22;;;0.00;95.20;;;;;;5040823;28;20049;-79
2021/04/23 02:59:07;;;;;;;10.05;4.85;;;0.00;95.10;;;;;;5053623;28;20063;-79
2021/04/23 03:01:39;;;;;;;16.27;5.95;;;0.00;95.00;;;;;;5067683;28;20512;-79
2021/04/23 03:04:07;;;;;;;16.60;6.35;;;0.00;94.90;;;;;;5069870;28;20501;-79
2021/04/23 03:06:35;;;;;;;4.32;3.10;;;0.00;94.70;;;;;;5069278;28;20505;-79
2021/04/23 03:09:06;;;;;;;6.30;3.53;;;-0.10;94.70;;;;;;5070576;28;20056;-79
2021/04/23 03:11:36;;;;;;;10.77;6.50;;;-0.10;94.90;;;;;;5069345;28;20071;-79
2021/04/23 03:14:04;;;;;;;8.55;4.07;;;-0.20;95.10;;;;;;5069793;28;20402;-79
2021/04/23 03:16:35;;;;;;;7.97;4.53;;;-0.10;94.80;;;;;;5069646;28;20051;-79
2021/04/23 03:19:08;;;;;;;15.23;5.15;;;-0.10;94.80;;;;;;5069441;28;20075;-79
2021/04/23 03:21:36;;;;;;;5.50;4.13;;;0.00;94.90;;;;;;5067535;28;20048;-79
2021/04/23 03:24:04;;;;;;;7.70;3.63;;;-0.20;95.10;;;;;;5069452;28;20059;-79
2021/04/23 03:26:32;;;;;;;7.60;4.50;;;-0.30;95.30;;;;;;5068806;28;20053;-79
2021/04/23 03:29:00;;;;;;;7.65;3.92;;;-0.30;95.20;;;;;;5069745;28;20520;-79
2021/04/23 03:31:27;;;;;;;9.90;5.70;;;-0.30;95.10;;;;;;5059658;28;20037;-79
2021/04/23 03:33:54;;;;;;;8.32;3.65;;;-0.40;95.20;;;;;;5069686;28;20057;-79
2021/04/23 03:36:22;;;;;;;12.88;5.20;;;-0.40;95.30;;;;;;5069137;28;20037;-79
2021/04/23 03:38:50;;;;;;;10.25;5.82;;;-0.40;95.40;;;;;;5069279;28;20044;-79
2021/04/23 03:41:22;;;;;;;9.20;4.05;;;-0.30;95.20;;;;;;5060342;28;20500;-79
2021/04/23 03:43:51;;;;;;;5.45;3.78;;;-0.30;95.20;;;;;;5059035;28;20405;-79
2021/04/23 03:46:18;;;;;;;14.65;3.85;;;-0.20;95.20;;;;;;5069297;28;20041;-79
2021/04/23 03:48:46;;;;;;;10.02;4.10;;;-0.30;95.30;;;;;;5068991;28;20063;-79
2021/04/23 03:51:16;;;;;;;6.95;5.13;;;-0.40;95.30;;;;;;5066633;28;20126;-79
2021/04/23 03:53:44;;;;;;;7.57;4.88;;;-0.30;95.60;;;;;;5069962;28;20060;-79
2021/04/23 03:56:13;;;;;;;55.10;7.18;;;-0.40;95.60;;;;;;5069618;28;20123;-79
2021/04/23 03:58:41;;;;;;;5.90;3.83;;;-0.50;95.60;;;;;;5069307;28;20055;-79
2021/04/23 04:01:15;;;;;;;8.43;3.10;;;-0.40;95.70;;;;;;5069248;28;20048;-79
2021/04/23 04:03:44;;;;;;;8.27;4.63;;;-0.40;95.60;;;;;;5069141;28;20497;-79
2021/04/23 04:06:12;;;;;;;8.00;4.50;;;-0.40;95.70;;;;;;5067371;28;20041;-79
2021/04/23 04:08:40;;;;;;;12.63;6.50;;;-0.40;95.40;;;;;;5069233;28;20045;-79
2021/04/23 04:11:07;;;;;;;9.07;4.13;;;-0.50;95.80;;;;;;5069875;28;20040;-79
2021/04/23 04:13:36;;;;;;;13.25;4.18;;;-0.60;95.90;;;;;;5070285;28;20053;-79
2021/04/23 04:16:04;;;;;;;10.20;4.03;;;-0.60;96.30;;;;;;5069091;28;20044;-79
2021/04/23 04:18:31;;;;;;;5.72;4.63;;;-0.60;96.60;;;;;;5058770;28;20063;-79
2021/04/23 04:20:59;;;;;;;17.25;5.43;;;-0.50;96.30;;;;;;5058831;28;20048;-79
2021/04/23 04:23:27;;;;;;;10.32;4.25;;;-0.30;96.00;;;;;;5042469;28;20677;-79
2021/04/23 04:25:59;;;;;;;10.75;4.47;;;-0.20;95.40;;;;;;5057420;28;20500;-79
2021/04/23 04:28:28;;;;;;;6.65;4.07;;;0.00;94.70;;;;;;5069186;28;20481;-79
2021/04/23 04:30:56;;;;;;;14.30;4.55;;;0.10;94.40;;;;;;5066279;28;20037;-79
2021/04/23 04:33:44;;;;;;;5.15;4.53;;;0.20;94.10;;;;;;5068384;28;20044;-79
2021/04/23 04:36:12;;;;;;;12.25;4.70;;;0.30;93.80;;;;;;5069833;28;20040;-79
2021/04/23 04:38:40;;;;;;;17.35;5.18;;;0.40;93.60;;;;;;5069665;28;20063;-79
2021/04/23 04:41:07;;;;;;;7.60;5.10;;;0.50;92.90;;;;;;5075596;28;20425;-79
2021/04/23 04:43:35;;;;;;;10.15;5.68;;;0.50;93.60;;;;;;5069391;28;20040;-79
2021/04/23 04:46:03;;;;;;;10.40;4.63;;;0.40;93.80;;;;;;5068991;28;20052;-79
2021/04/23 04:48:30;;;;;;;9.07;5.05;;;0.40;93.80;;;;;;5069091;28;20059;-79
2021/04/23 04:50:59;;;;;;;18.13;4.30;;;0.50;93.30;;;;;;5069236;28;20037;-79
2021/04/23 04:53:28;;;;;;;16.33;5.35;;;0.70;93.20;;;;;;5066789;28;20053;-79
2021/04/23 04:55:58;;;;;;;9.23;5.28;;;0.90;92.80;;;;;;5058439;28;20033;-79
2021/04/23 04:58:33;;;;;;;24.92;9.73;;;1.10;92.40;;;;;;5049271;28;20047;-79
2021/04/23 05:01:02;;;;;;;10.70;6.53;;;1.40;92.30;;;;;;5057289;28;20060;-79
2021/04/23 05:03:30;;;;;;;8.63;5.45;;;1.50;91.80;;;;;;5057593;28;20048;-79
2021/04/23 05:05:58;;;;;;;11.65;4.90;;;1.70;91.40;;;;;;5049923;28;20049;-79
2021/04/23 05:08:26;;;;;;;8.43;6.35;;;2.00;91.20;;;;;;5060037;28;20045;-79
2021/04/23 05:10:53;;;;;;;12.52;4.93;;;2.10;90.30;;;;;;5057807;28;20123;-79
2021/04/23 05:13:20;;;;;;;8.43;4.97;;;2.30;90.40;;;;;;5059535;28;20060;-79
2021/04/23 05:15:49;;;;;;;6.18;4.47;;;2.60;90.00;;;;;;5059161;28;20045;-77
2021/04/23 05:18:16;;;;;;;14.10;7.15;;;2.90;89.70;;;;;;5059678;28;20056;-77
2021/04/23 05:20:43;;;;;;;19.63;4.85;;;3.20;88.70;;;;;;5062361;28;20400;-77
2021/04/23 05:23:11;;;;;;;11.25;5.57;;;3.40;87.50;;;;;;5062578;28;20044;-77
2021/04/23 05:25:39;;;;;;;9.88;5.30;;;3.70;86.50;;;;;;5064301;28;20522;-77
2021/04/23 05:28:07;;;;;;;10.35;5.40;;;4.00;86.10;;;;;;5061506;28;20478;-77
2021/04/23 05:30:37;;;;;;;11.32;5.45;;;4.30;85.70;;;;;;5060958;28;20056;-78
2021/04/23 05:33:06;;;;;;;11.25;5.25;;;4.60;85.70;;;;;;5054453;28;20049;-77
2021/04/23 05:35:34;;;;;;;6.28;4.75;;;5.00;83.90;;;;;;5062976;28;20474;-77
2021/04/23 05:38:03;;;;;;;10.40;5.03;;;5.30;83.20;;;;;;5062936;28;20483;-77
2021/04/23 05:40:34;;;;;;;7.57;4.80;;;5.70;81.90;;;;;;5060878;28;20064;-77
2021/04/23 05:43:04;;;;;;;17.35;5.50;;;6.00;80.00;;;;;;5061976;28;20037;-77
2021/04/23 05:45:33;;;;;;;14.95;4.95;;;6.40;78.20;;;;;;5062404;28;20474;-77
2021/04/23 05:48:01;;;;;;;16.25;4.72;;;6.60;76.50;;;;;;5061251;28;20048;-77
2021/04/23 05:50:29;;;;;;;7.22;4.72;;;6.90;75.60;;;;;;5060677;28;20071;-77
2021/04/23 05:52:56;;;;;;;8.85;4.45;;;7.30;77.00;;;;;;5052181;28;20060;-77
2021/04/23 05:55:25;;;;;;;13.25;4.75;;;7.30;76.40;;;;;;5055750;28;20044;-78
2021/04/23 05:57:55;;;;;;;16.60;6.03;;;7.40;77.00;;;;;;5044760;28;20063;-78
2021/04/23 06:00:28;;;;;;;8.35;5.90;;;7.80;75.60;;;;;;5053157;28;20049;-78
2021/04/23 06:03:02;;;;;;;13.10;6.20;;;8.50;75.00;;;;;;5039901;28;20040;-78
2021/04/23 06:05:30;;;;;;;26.40;4.85;;;9.20;68.50;;;;;;5056428;28;20048;-77
2021/04/23 06:08:04;;;;;;;9.02;5.25;;;9.20;68.20;;;;;;5058197;28;20041;-78
2021/04/23 06:10:38;;;;;;;14.65;6.30;;;9.60;68.30;;;;;;5062010;28;20052;-79
2021/04/23 06:13:13;;;;;;;10.85;6.03;;;9.90;66.30;;;;;;5027535;28;20053;-78
2021/04/23 06:15:48;;;;;;;10.68;4.63;;;9.90;66.00;;;;;;5058899;28;20033;-79
2021/04/23 06:18:16;;;;;;;10.68;5.22;;;10.00;67.50;;;;;;5049794;28;20653;-79
2021/04/23 06:20:45;;;;;;;10.20;5.18;;;10.10;63.50;;;;;;5061034;28;20047;-79
2021/04/23 06:23:16;;;;;;;;;;;10.30;61.70;;;;;;5054396;28;20052;-80
2021/04/23 06:25:43;;;;;;;5.97;2.63;;;10.60;50.30;;;;;;5074510;28;19932;-80
2021/04/23 06:28:11;;;;;;;9.00;2.58;;;11.10;47.50;;;;;;5054835;28;20056;-82
2021/04/23 06:30:39;;;;;;;8.82;3.20;;;11.60;48.70;;;;;;5068638;28;20502;-84
2021/04/23 06:33:21;;;;;;;10.17;4.17;;;12.20;48.60;;;;;;5043719;28;20440;-83
2021/04/23 06:35:49;;;;;;;11.23;3.22;;;12.30;49.60;;;;;;5045091;28;20310;-84
2021/04/23 06:38:17;;;;;;;10.40;4.55;;;12.60;51.30;;;;;;5047033;28;20053;-81
2021/04/23 06:40:45;;;;;;;8.48;3.50;;;12.60;51.00;;;;;;5067192;28;20076;-80
2021/04/23 06:43:13;;;;;;;6.88;2.95;;;12.80;47.40;;;;;;5033341;28;20076;-83
2021/04/23 06:45:43;;;;;;;9.13;3.85;;;13.40;47.10;;;;;;5035363;28;20053;-84
2021/04/23 06:48:14;;;;;;;8.32;3.15;;;13.90;45.30;;;;;;5051568;28;20052;-84
2021/04/23 06:50:49;;;;;;;7.90;6.47;;;14.50;44.60;;;;;;5025053;28;20045;-84
2021/04/23 06:53:19;;;;;;;9.48;5.40;;;15.10;42.90;;;;;;5014537;28;20049;-84
2021/04/23 06:55:51;;;;;;;9.45;4.63;;;15.00;44.00;;;;;;4993447;28;20684;-84
2021/04/23 06:58:19;;;;;;;10.10;3.30;;;15.00;41.20;;;;;;5015637;28;20045;-84
2021/04/23 07:00:47;;;;;;;5.60;3.05;;;15.20;42.70;;;;;;5027594;28;20060;-82
2021/04/23 07:03:15;;;;;;;4.97;3.50;;;15.20;42.00;;;;;;5008833;28;20053;-80
2021/04/23 07:05:45;;;;;;;8.90;4.55;;;14.30;43.50;;;;;;5042224;28;20054;-80
2021/04/23 07:08:15;;;;;;;4.60;3.17;;;13.80;47.10;;;;;;5029966;28;20045;-82
2021/04/23 07:10:43;;;;;;;13.68;4.25;;;13.70;45.20;;;;;;5039379;28;20056;-81
2021/04/23 07:13:13;;;;;;;6.85;3.50;;;14.80;44.70;;;;;;5051970;28;20053;-80
2021/04/23 07:15:43;;;;;;;;;;;15.40;39.80;;;;;;5033839;28;20034;-81
2021/04/23 07:18:15;;;;;;;5.88;2.70;;;16.20;38.70;;;;;;5021508;28;19921;-86
2021/04/23 07:20:46;;;;;;;8.77;2.85;;;16.80;36.60;;;;;;5009286;28;20033;-79
2021/04/23 07:23:15;;;;;;;5.25;2.97;;;17.20;37.00;;;;;;5055199;28;20041;-82
2021/04/23 07:25:43;;;;;;;9.35;4.63;;;18.00;34.20;;;;;;5049795;28;20394;-83
2021/04/23 07:28:12;;;;;;;11.30;4.32;;;18.90;32.80;;;;;;5034649;28;20048;-83
2021/04/23 07:30:41;;;;;;;7.75;3.53;;;18.50;31.90;;;;;;5032449;28;20041;-83
2021/04/23 07:33:12;;;;;;;5.15;2.58;;;18.60;33.20;;;;;;5051388;28;20044;-83
2021/04/23 07:35:45;;;;;;;4.40;2.55;;;18.80;32.20;;;;;;5030020;28;20041;-81
2021/04/23 07:38:13;;;;;;;4.25;2.22;;;19.30;31.90;;;;;;5027433;28;20052;-82
2021/04/23 07:40:42;;;;;;;6.15;2.70;;;19.40;32.50;;;;;;5038026;28;20052;-83
2021/04/23 07:43:12;;;;;;;4.13;2.75;;;18.40;31.20;;;;;;5034567;28;20055;-83
2021/04/23 07:45:59;;;;;;;8.77;2.50;;;18.00;33.60;;;;;;5056026;28;20048;-83
2021/04/23 07:48:28;;;;;;;10.23;3.10;;;19.20;30.30;;;;;;5015870;28;20535;-82
2021/04/23 07:50:57;;;;;;;7.88;3.35;;;20.70;29.40;;;;;;5030543;28;20044;-82
2021/04/23 07:53:27;;;;;;;9.05;3.10;;;21.80;27.60;;;;;;5034007;28;20060;-80
2021/04/23 07:55:55;;;;;;;;;;;21.20;28.40;;;;;;5032055;28;20037;-82
2021/04/23 07:58:23;;;;;;;7.45;3.00;;;21.10;28.50;;;;;;5030301;28;19921;-82
2021/04/23 08:00:51;;;;;;;15.07;3.92;;;21.90;29.10;;;;;;5048706;28;20049;-81
2021/04/23 08:03:22;;;;;;;10.05;3.50;;;19.70;29.70;;;;;;5029843;28;20044;-79
2021/04/23 08:05:50;;;;;;;13.75;3.95;;;18.20;33.10;;;;;;5048942;28;20053;-82
2021/04/23 08:08:30;;;;;;;13.13;4.47;;;17.80;34.10;;;;;;5045928;28;20037;-81
2021/04/23 08:10:58;;;;;;;13.60;4.22;;;19.20;33.00;;;;;;5046042;28;20044;-84
2021/04/23 08:13:26;;;;;;;18.02;4.40;;;18.90;32.60;;;;;;5048272;28;20501;-85
2021/04/23 08:15:54;;;;;;;10.38;3.53;;;18.90;31.60;;;;;;5029893;28;20045;-82
2021/04/23 08:18:23;;;;;;;9.40;3.60;;;19.80;30.50;;;;;;5030278;28;20474;-82
2021/04/23 08:20:52;;;;;;;11.63;3.95;;;18.20;32.30;;;;;;5049673;28;20049;-85
2021/04/23 08:23:21;;;;;;;11.30;3.08;;;18.50;30.80;;;;;;5046015;28;20060;-81
2021/04/23 08:25:52;;;;;;;4.60;3.20;;;19.60;30.80;;;;;;5048182;28;20053;-80
2021/04/23 08:28:20;;;;;;;7.47;3.85;;;20.60;28.90;;;;;;5047734;28;20052;-81
2021/04/23 08:30:47;;;;;;;8.43;4.30;;;19.40;30.50;;;;;;5031280;28;20540;-81
2021/04/23 08:33:15;;;;;;;10.85;4.90;;;19.00;33.20;;;;;;5044080;28;20410;-82
2021/04/23 08:35:42;;;;;;;9.82;4.60;;;20.30;29.70;;;;;;5035804;28;20498;-80
2021/04/23 08:38:10;;;;;;;6.70;3.75;;;20.40;30.00;;;;;;5028666;28;20049;-82
2021/04/23 08:40:38;;;;;;;7.50;4.07;;;20.20;28.90;;;;;;5036557;28;20041;-83
2021/04/23 08:43:10;;;;;;;13.02;5.35;;;20.60;29.10;;;;;;5036560;28;20052;-83
2021/04/23 08:45:38;;;;;;;4.10;3.35;;;21.00;26.70;;;;;;5022973;28;20056;-81
2021/04/23 08:48:10;;;;;;;7.68;3.55;;;20.60;28.80;;;;;;5035709;28;20053;-85
2021/04/23 08:50:38;;;;;;;8.57;4.45;;;19.70;29.50;;;;;;5034812;28;20044;-83
2021/04/23 08:53:06;;;;;;;6.60;3.58;;;18.10;32.30;;;;;;5037267;28;20064;-80
2021/04/23 08:55:33;;;;;;;9.60;3.67;;;17.00;37.40;;;;;;5025108;28;20502;-83
2021/04/23 08:58:14;;;;;;;5.18;2.83;;;15.00;38.20;;;;;;5041292;28;20478;-82
2021/04/23 09:00:42;;;;;;;9.38;7.57;;;13.90;41.50;;;;;;5051700;28;20045;-84
2021/04/23 09:03:16;;;;;;;6.13;4.07;;;13.70;43.10;;;;;;5033604;28;20049;-85
2021/04/23 09:06:09;;;;;;;11.45;3.42;;;14.00;41.30;;;;;;5032853;28;20053;-82
2021/04/23 09:08:45;;;;;;;12.60;5.35;;;13.90;41.90;;;;;;5040525;28;20549;-82
2021/04/23 09:11:17;;;;;;;7.20;4.07;;;12.10;46.60;;;;;;5028706;28;20057;-82
2021/04/23 09:14:06;;;;;;;7.35;4.13;;;12.10;45.90;;;;;;5040627;28;20048;-80
2021/04/23 09:16:53;;;;;;;8.75;3.92;;;12.30;49.10;;;;;;5046221;28;20124;-82
2021/04/23 09:19:24;;;;;;;8.10;3.92;;;12.50;47.80;;;;;;5031536;28;20051;-81
2021/04/23 09:21:56;;;;;;;9.30;4.22;;;13.00;46.20;;;;;;5063612;28;20417;-81
2021/04/23 09:24:33;;;;;;;13.88;4.28;;;13.10;45.80;;;;;;5058439;28;20052;-80
2021/04/23 09:27:17;;;;;;;9.07;4.70;;;12.10;45.50;;;;;;5066053;28;20048;-79
2021/04/23 09:29:51;;;;;;;7.93;4.07;;;12.00;49.30;;;;;;5057954;28;20542;-80
2021/04/23 09:32:25;;;;;;;7.28;4.13;;;12.30;46.60;;;;;;5042571;28;20056;-80
2021/04/23 09:35:02;;;;;;;3.55;3.25;;;12.70;45.10;;;;;;5056042;28;20037;-83
2021/04/23 09:37:43;;;;;;;13.75;4.20;;;12.90;46.60;;;;;;5044785;28;20037;-81
2021/04/23 09:40:20;;;;;;;8.45;3.88;;;12.90;48.50;;;;;;5062042;28;20045;-81
2021/04/23 09:43:04;;;;;;;8.93;4.20;;;12.70;46.40;;;;;;5054219;28;20507;-81
2021/04/23 09:45:56;;;;;;;13.00;4.90;;;12.70;47.90;;;;;;5059139;28;20045;-81
2021/04/23 09:48:27;;;;;;;9.45;5.22;;;12.60;46.20;;;;;;5059403;28;20055;-80
2021/04/23 09:51:17;;;;;;;6.78;4.20;;;11.70;49.00;;;;;;5047706;28;20520;-80
2021/04/23 09:53:46;;;;;;;8.73;4.88;;;11.60;47.70;;;;;;5040912;28;20044;-81
2021/04/23 09:56:32;;;;;;;8.02;3.47;;;11.80;48.10;;;;;;5045211;28;20049;-83
2021/04/23 09:59:27;;;;;;;11.73;4.45;;;11.90;47.60;;;;;;5018765;28;20045;-79
2021/04/23 10:02:00;;;;;;;11.75;4.65;;;12.10;45.20;;;;;;5058988;28;20029;-80
2021/04/23 10:04:36;;;;;;;11.30;4.78;;;11.80;51.50;;;;;;5043867;28;20071;-81
2021/04/23 10:07:14;;;;;;;15.68;5.55;;;12.00;47.90;;;;;;5027355;28;20032;-80
2021/04/23 10:10:02;;;;;;;13.23;4.68;;;12.10;61.50;;;;;;5042330;28;20043;-81
2021/04/23 10:12:39;;;;;;;10.20;4.05;;;12.50;48.90;;;;;;5058180;28;20079;-82
2021/04/23 10:15:18;;;;;;;14.93;5.68;;;12.50;48.60;;;;;;5058975;28;20048;-75
2021/04/23 10:17:55;;;;;;;8.77;4.85;;;12.80;45.50;;;;;;5058567;28;20048;-73
2021/04/23 10:20:28;;;;;;;11.25;3.67;;;12.40;45.50;;;;;;5044406;28;20041;-74
2021/04/23 10:22:57;;;;;;;14.23;4.50;;;11.70;45.30;;;;;;5055675;28;20052;-75
2021/04/23 10:25:26;;;;;;;5.40;3.17;;;11.70;45.50;;;;;;5060883;28;20033;-74
2021/04/23 10:27:55;;;;;;;10.75;5.32;;;11.90;46.40;;;;;;5062834;28;20784;-74
2021/04/23 10:30:25;;;;;;;16.67;5.28;;;12.40;51.00;;;;;;5058208;28;20051;-74
2021/04/23 10:33:11;;;;;;;10.43;3.95;;;12.60;46.70;;;;;;5059899;28;20116;-74
2021/04/23 10:35:40;;;;;;;6.82;4.55;;;12.80;45.00;;;;;;5060498;28;20056;-73
2021/04/23 10:38:11;;;;;;;9.07;4.93;;;12.70;46.90;;;;;;5045075;28;20532;-74
2021/04/23 10:40:42;;;;;;;9.32;3.95;;;12.40;51.50;;;;;;5043050;28;20048;-74
2021/04/23 10:43:13;;;;;;;9.20;5.10;;;12.30;48.30;;;;;;5058890;28;20379;-74
2021/04/23 10:46:12;;;;;;;9.85;4.88;;;12.50;50.90;;;;;;5044963;28;20375;-75
2021/04/23 10:48:44;;;;;;;10.35;4.82;;;12.30;47.60;;;;;;5043550;28;20045;-74
2021/04/23 10:51:20;;;;;;;7.88;4.72;;;12.30;46.00;;;;;;5058243;28;20553;-73
2021/04/23 10:53:51;;;;;;;7.70;4.57;;;12.40;50.60;;;;;;5056835;28;20060;-73
2021/04/23 10:56:29;;;;;;;8.35;4.97;;;12.40;47.40;;;;;;5027832;28;20044;-74
2021/04/23 10:59:03;;;;;;;5.10;3.47;;;12.40;48.50;;;;;;5058080;28;20040;-74
2021/04/23 11:01:39;;;;;;;10.95;4.82;;;12.80;49.40;;;;;;5057722;28;20052;-74
2021/04/23 11:04:16;;;;;;;10.13;5.05;;;12.40;52.30;;;;;;5059349;28;20045;-75
2021/04/23 11:06:53;;;;;;;9.43;5.07;;;12.60;50.50;;;;;;5057430;28;20064;-74
2021/04/23 11:09:23;;;;;;;10.13;6.28;;;12.40;49.00;;;;;;5058636;28;20064;-74
2021/04/23 11:12:08;;;;;;;13.27;4.80;;;12.40;46.30;;;;;;5059689;28;20515;-75
2021/04/23 11:14:37;;;;;;;8.30;4.65;;;12.50;49.00;;;;;;5056638;28;20056;-75
2021/04/23 11:17:17;;;;;;;10.23;5.60;;;12.70;47.40;;;;;;5058355;28;20059;-74
2021/04/23 11:19:50;;;;;;;7.43;3.58;;;12.80;47.10;;;;;;5059312;28;20044;-75
2021/04/23 11:22:22;;;;;;;10.60;5.60;;;12.80;48.60;;;;;;5060916;28;20063;-76
2021/04/23 11:25:04;;;;;;;9.90;4.07;;;12.90;48.80;;;;;;5059215;28;20048;-75
2021/04/23 11:27:32;;;;;;;6.68;4.22;;;12.70;45.00;;;;;;5057046;28;20795;-75
2021/04/23 11:30:08;;;;;;;10.77;3.70;;;12.90;49.00;;;;;;5060733;28;20059;-75
2021/04/23 11:32:50;;;;;;;11.43;3.92;;;12.90;44.50;;;;;;5043161;28;20047;-75
2021/04/23 11:35:19;;;;;;;6.95;3.83;;;12.80;41.40;;;;;;5041423;28;20048;-75
2021/04/23 11:37:48;;;;;;;4.82;3.47;;;13.00;45.50;;;;;;5058930;28;20060;-75
2021/04/23 11:40:24;;;;;;;5.45;3.95;;;12.90;40.30;;;;;;5057531;28;20051;-74
2021/04/23 11:42:54;;;;;;;5.40;3.15;;;12.70;39.10;;;;;;5057342;28;20033;-75
2021/04/23 11:45:26;;;;;;;7.25;3.60;;;12.50;40.40;;;;;;5042697;28;20045;-74
2021/04/23 11:48:13;;;;;;;6.55;3.60;;;12.80;39.20;;;;;;5058944;28;20045;-83
2021/04/23 11:50:48;;;;;;;8.48;3.17;;;12.80;36.40;;;;;;5038639;28;20209;-83
2021/04/23 11:53:18;;;;;;;8.38;3.55;;;12.90;44.40;;;;;;4974646;28;20054;-82
2021/04/23 11:55:48;;;;;;;5.32;3.33;;;13.40;35.80;;;;;;5005569;28;20041;-84
2021/04/23 11:58:25;;;;;;;4.78;4.22;;;13.00;35.80;;;;;;5008621;28;20720;-86
2021/04/23 12:01:04;;;;;;;5.93;3.10;;;12.80;34.40;;;;;;5000879;28;20057;-74
2021/04/23 12:03:35;;;;;;;8.95;3.88;;;12.90;37.10;;;;;;5005438;28;20122;-73
2021/04/23 12:06:12;;;;;;;5.40;3.70;;;12.80;35.20;;;;;;5006911;28;20565;-73
2021/04/23 12:08:44;;;;;;;4.95;3.47;;;13.10;38.30;;;;;;5005756;28;20530;-73
2021/04/23 12:11:11;;;;;;;4.25;2.92;;;13.20;38.20;;;;;;5007256;28;20050;-73
2021/04/23 12:13:40;;;;;;;7.70;4.65;;;13.10;35.60;;;;;;5007808;28;20058;-74
2021/04/23 12:16:13;;;;;;;3.67;2.50;;;12.80;33.40;;;;;;5004703;28;20077;-73
2021/04/23 12:18:43;;;;;;;4.47;2.90;;;12.90;35.50;;;;;;5058070;28;20045;-73
2021/04/23 12:21:12;;;;;;;5.68;2.83;;;13.20;34.50;;;;;;5045087;28;20056;-73
2021/04/23 12:23:40;;;;;;;6.53;4.75;;;13.40;32.60;;;;;;5061637;28;20037;-72
2021/04/23 12:26:10;;;;;;;5.47;3.33;;;13.40;34.30;;;;;;5063038;28;20426;-72
2021/04/23 12:28:44;;;;;;;4.43;3.72;;;13.70;42.30;;;;;;5067071;28;20032;-76
2021/04/23 12:31:22;;;;;;;7.30;4.07;;;13.60;40.50;;;;;;5061857;28;20045;-73
2021/04/23 12:34:19;;;;;;;9.45;3.92;;;13.30;33.80;;;;;;5063150;28;20049;-71
2021/04/23 12:36:51;;;;;;;10.75;3.75;;;13.50;40.60;;;;;;5052591;28;20048;-73
2021/04/23 12:39:32;;;;;;;5.22;4.10;;;13.60;35.40;;;;;;5063194;28;20470;-72
2021/04/23 12:42:02;;;;;;;5.95;3.88;;;13.70;36.90;;;;;;5064046;28;20559;-71
2021/04/23 12:44:32;;;;;;;9.38;4.53;;;13.90;36.80;;;;;;5065116;28;20040;-71
2021/04/23 12:47:03;;;;;;;3.35;3.05;;;14.00;37.00;;;;;;5065321;28;20045;-73
2021/04/23 12:49:32;;;;;;;5.43;3.27;;;14.00;37.30;;;;;;5062740;28;20052;-71
2021/04/23 12:52:18;;;;;;;12.98;3.67;;;14.00;36.60;;;;;;5061942;28;20041;-71
2021/04/23 12:54:51;;;;;;;7.28;5.38;;;13.80;36.20;;;;;;5060928;28;20505;-73
2021/04/23 12:57:30;;;;;;;5.97;4.07;;;13.40;41.30;;;;;;5062306;28;20394;-72
2021/04/23 13:00:00;;;;;;;5.70;4.47;;;13.40;36.00;;;;;;5063421;28;20051;-74
2021/04/23 13:02:30;;;;;;;9.05;3.80;;;13.60;35.30;;;;;;5062110;28;20477;-73
2021/04/23 13:05:06;;;;;;;9.07;4.38;;;13.70;32.60;;;;;;5046587;28;20051;-75
2021/04/23 13:07:46;;;;;;;6.50;3.60;;;13.90;37.50;;;;;;5062715;28;20036;-77
2021/04/23 13:10:46;;;;;;;7.85;3.63;;;13.80;39.40;;;;;;5060695;28;20151;-74
2021/04/23 13:13:19;;;;;;;5.35;4.20;;;13.90;33.00;;;;;;4996624;28;20131;-74